Guilden Sutton, United Kingdom
Current Conditions -  °F | °C
As of 3:20 AM on Saturday 27 Dec 2014 (Local Time) from EGCC Reporting Station
Clear Clear  
Wind Chill: 28°   Ceiling: Unl
Heat Index: 34°   Visibility: 6mi
Dew Point: 32°   Wind: 7mph
Humidity: 93%   Direction: 330°NNW
Pressure: 29.83"   Gusts: NA
Location:  53.21°N, 2.83°W
Report Text: EGCC 270320Z AUTO 33006KT 9999 NCD 01/00 Q1010
Loading
Personal Weather Stations






























Interactive Weather Map New forecast layout! Learn more

10-Day Weather Forecast

Advertisements
Track Severe Weather on mobile